San Simon, Arizona
Current Conditions -  °F | °C
As of 11:15 AM on Thursday 29 Jan 2015 (Local Time) from KLSB Reporting Station
Broken Clouds Broken Clouds  
Wind Chill: 12°   Ceiling: 11000
Heat Index: 12°   Visibility: 10mi
Dew Point:   Wind: 14mph
Humidity: 47%   Direction: 150°SSE
Pressure: 30.26"   Gusts: 21mph
Location:  32.27°N, 109.23°W
Report Text: KLSB 291815Z AUTO 15012G18KT 10SM BKN110 12/01 A3026 RMK AO2
Loading
Personal Weather Stations






























Interactive Weather Map New forecast layout! Learn more

10-Day Weather Forecast

Advertisements
Track Severe Weather on mobile